sensor_id;sensor_type;location;lat;lon;timestamp;P1;durP1;ratioP1;P2;durP2;ratioP2
47589;SDS011;33316;52.298;9.056;2023-12-20T00:01:02;5.78;;;2.85;;
47589;SDS011;33316;52.298;9.056;2023-12-20T00:03:30;3.83;;;2.85;;
47589;SDS011;33316;52.298;9.056;2023-12-20T00:05:57;4.35;;;2.63;;
47589;SDS011;33316;52.298;9.056;2023-12-20T00:08:24;6.40;;;3.40;;
47589;SDS011;33316;52.298;9.056;2023-12-20T00:10:52;5.22;;;2.88;;
47589;SDS011;33316;52.298;9.056;2023-12-20T00:13:19;3.88;;;2.55;;
47589;SDS011;33316;52.298;9.056;2023-12-20T00:15:46;4.00;;;2.28;;
47589;SDS011;33316;52.298;9.056;2023-12-20T00:18:13;5.93;;;2.50;;
47589;SDS011;33316;52.298;9.056;2023-12-20T00:20:40;4.28;;;2.17;;
47589;SDS011;33316;52.298;9.056;2023-12-20T00:23:07;5.03;;;1.98;;
47589;SDS011;33316;52.298;9.056;2023-12-20T00:25:34;6.82;;;2.25;;
47589;SDS011;33316;52.298;9.056;2023-12-20T00:28:02;4.47;;;2.40;;
47589;SDS011;33316;52.298;9.056;2023-12-20T00:30:29;3.95;;;2.00;;
47589;SDS011;33316;52.298;9.056;2023-12-20T00:32:56;3.42;;;1.92;;
47589;SDS011;33316;52.298;9.056;2023-12-20T00:35:23;5.80;;;1.98;;
47589;SDS011;33316;52.298;9.056;2023-12-20T00:37:50;3.30;;;1.77;;
47589;SDS011;33316;52.298;9.056;2023-12-20T00:40:17;4.15;;;1.83;;
47589;SDS011;33316;52.298;9.056;2023-12-20T00:42:45;5.45;;;2.05;;
47589;SDS011;33316;52.298;9.056;2023-12-20T00:45:14;3.63;;;1.52;;
47589;SDS011;33316;52.298;9.056;2023-12-20T00:47:41;3.03;;;1.40;;
47589;SDS011;33316;52.298;9.056;2023-12-20T00:50:08;3.47;;;1.58;;
47589;SDS011;33316;52.298;9.056;2023-12-20T00:52:35;5.47;;;1.40;;
47589;SDS011;33316;52.298;9.056;2023-12-20T00:55:03;2.40;;;1.45;;
47589;SDS011;33316;52.298;9.056;2023-12-20T00:57:30;3.38;;;1.73;;
47589;SDS011;33316;52.298;9.056;2023-12-20T00:59:57;3.95;;;1.50;;
47589;SDS011;33316;52.298;9.056;2023-12-20T01:02:26;4.60;;;1.80;;
47589;SDS011;33316;52.298;9.056;2023-12-20T01:04:53;3.92;;;1.27;;
47589;SDS011;33316;52.298;9.056;2023-12-20T01:07:20;4.07;;;1.90;;
47589;SDS011;33316;52.298;9.056;2023-12-20T01:09:48;3.25;;;1.77;;
47589;SDS011;33316;52.298;9.056;2023-12-20T01:12:15;5.40;;;1.70;;
47589;SDS011;33316;52.298;9.056;2023-12-20T01:14:42;3.28;;;1.67;;
47589;SDS011;33316;52.298;9.056;2023-12-20T01:17:09;3.70;;;1.75;;
47589;SDS011;33316;52.298;9.056;2023-12-20T01:19:37;5.70;;;1.77;;
47589;SDS011;33316;52.298;9.056;2023-12-20T01:22:04;4.38;;;1.65;;
47589;SDS011;33316;52.298;9.056;2023-12-20T01:24:32;4.82;;;1.70;;
47589;SDS011;33316;52.298;9.056;2023-12-20T01:26:59;3.60;;;1.40;;
47589;SDS011;33316;52.298;9.056;2023-12-20T01:29:26;2.65;;;1.38;;
47589;SDS011;33316;52.298;9.056;2023-12-20T01:31:52;3.75;;;1.60;;
47589;SDS011;33316;52.298;9.056;2023-12-20T01:34:20;5.15;;;1.38;;
47589;SDS011;33316;52.298;9.056;2023-12-20T01:36:48;3.88;;;1.35;;
47589;SDS011;33316;52.298;9.056;2023-12-20T01:39:16;2.60;;;1.20;;
47589;SDS011;33316;52.298;9.056;2023-12-20T01:41:43;7.55;;;1.85;;
47589;SDS011;33316;52.298;9.056;2023-12-20T01:44:11;5.43;;;1.52;;
47589;SDS011;33316;52.298;9.056;2023-12-20T01:46:38;2.92;;;1.30;;
47589;SDS011;33316;52.298;9.056;2023-12-20T01:49:05;2.47;;;1.10;;
47589;SDS011;33316;52.298;9.056;2023-12-20T01:51:33;3.13;;;1.15;;
47589;SDS011;33316;52.298;9.056;2023-12-20T01:54:02;5.35;;;1.10;;
47589;SDS011;33316;52.298;9.056;2023-12-20T01:56:30;4.25;;;1.08;;
47589;SDS011;33316;52.298;9.056;2023-12-20T01:58:58;4.38;;;1.33;;
47589;SDS011;33316;52.298;9.056;2023-12-20T02:01:26;6.05;;;1.25;;
47589;SDS011;33316;52.298;9.056;2023-12-20T02:03:54;3.30;;;1.20;;
47589;SDS011;33316;52.298;9.056;2023-12-20T02:06:22;3.67;;;0.80;;
47589;SDS011;33316;52.298;9.056;2023-12-20T02:08:50;3.55;;;0.95;;
47589;SDS011;33316;52.298;9.056;2023-12-20T02:11:19;5.40;;;0.98;;
47589;SDS011;33316;52.298;9.056;2023-12-20T02:13:47;4.40;;;0.98;;
47589;SDS011;33316;52.298;9.056;2023-12-20T02:16:14;1.80;;;0.73;;
47589;SDS011;33316;52.298;9.056;2023-12-20T02:18:41;2.58;;;0.70;;
47589;SDS011;33316;52.298;9.056;2023-12-20T02:21:09;3.35;;;0.85;;
47589;SDS011;33316;52.298;9.056;2023-12-20T02:23:38;3.40;;;0.80;;
47589;SDS011;33316;52.298;9.056;2023-12-20T02:26:05;4.22;;;0.68;;
47589;SDS011;33316;52.298;9.056;2023-12-20T02:28:32;5.40;;;0.90;;
47589;SDS011;33316;52.298;9.056;2023-12-20T02:31:00;2.35;;;0.77;;
47589;SDS011;33316;52.298;9.056;2023-12-20T02:33:27;4.88;;;0.80;;
47589;SDS011;33316;52.298;9.056;2023-12-20T02:35:54;2.95;;;0.52;;
47589;SDS011;33316;52.298;9.056;2023-12-20T02:38:21;3.45;;;0.80;;
47589;SDS011;33316;52.298;9.056;2023-12-20T02:40:49;1.42;;;0.52;;
47589;SDS011;33316;52.298;9.056;2023-12-20T02:43:16;1.65;;;0.52;;
47589;SDS011;33316;52.298;9.056;2023-12-20T02:45:43;2.75;;;0.68;;
47589;SDS011;33316;52.298;9.056;2023-12-20T02:48:10;3.40;;;0.90;;
47589;SDS011;33316;52.298;9.056;2023-12-20T02:50:37;3.95;;;1.00;;
47589;SDS011;33316;52.298;9.056;2023-12-20T02:53:16;1.85;;;0.60;;
47589;SDS011;33316;52.298;9.056;2023-12-20T02:55:43;1.23;;;0.43;;
47589;SDS011;33316;52.298;9.056;2023-12-20T02:58:12;1.70;;;0.63;;
47589;SDS011;33316;52.298;9.056;2023-12-20T03:00:39;2.75;;;0.80;;
47589;SDS011;33316;52.298;9.056;2023-12-20T03:03:05;4.28;;;0.80;;
47589;SDS011;33316;52.298;9.056;2023-12-20T03:05:32;3.30;;;0.88;;
47589;SDS011;33316;52.298;9.056;2023-12-20T03:07:59;4.57;;;0.80;;
47589;SDS011;33316;52.298;9.056;2023-12-20T03:10:26;5.07;;;1.00;;
47589;SDS011;33316;52.298;9.056;2023-12-20T03:12:53;2.70;;;0.75;;
47589;SDS011;33316;52.298;9.056;2023-12-20T03:15:21;2.55;;;0.80;;
47589;SDS011;33316;52.298;9.056;2023-12-20T03:17:48;3.03;;;0.90;;
47589;SDS011;33316;52.298;9.056;2023-12-20T03:20:15;3.35;;;0.68;;
47589;SDS011;33316;52.298;9.056;2023-12-20T03:22:42;2.55;;;0.85;;
47589;SDS011;33316;52.298;9.056;2023-12-20T03:25:09;4.03;;;1.05;;
47589;SDS011;33316;52.298;9.056;2023-12-20T03:27:37;4.75;;;1.25;;
47589;SDS011;33316;52.298;9.056;2023-12-20T03:30:05;3.90;;;1.48;;
47589;SDS011;33316;52.298;9.056;2023-12-20T03:32:34;3.50;;;1.27;;
47589;SDS011;33316;52.298;9.056;2023-12-20T03:35:02;5.07;;;0.88;;
47589;SDS011;33316;52.298;9.056;2023-12-20T03:37:29;3.75;;;0.88;;
47589;SDS011;33316;52.298;9.056;2023-12-20T03:39:57;2.75;;;0.98;;
47589;SDS011;33316;52.298;9.056;2023-12-20T03:42:24;2.38;;;0.73;;
47589;SDS011;33316;52.298;9.056;2023-12-20T03:44:51;2.63;;;0.68;;
47589;SDS011;33316;52.298;9.056;2023-12-20T03:47:18;2.25;;;0.80;;
47589;SDS011;33316;52.298;9.056;2023-12-20T03:49:46;3.83;;;1.10;;
47589;SDS011;33316;52.298;9.056;2023-12-20T03:52:13;3.40;;;1.30;;
47589;SDS011;33316;52.298;9.056;2023-12-20T03:54:40;2.20;;;0.70;;
47589;SDS011;33316;52.298;9.056;2023-12-20T03:57:08;3.75;;;0.90;;
47589;SDS011;33316;52.298;9.056;2023-12-20T03:59:35;2.45;;;0.70;;
47589;SDS011;33316;52.298;9.056;2023-12-20T04:02:02;2.17;;;0.80;;
47589;SDS011;33316;52.298;9.056;2023-12-20T04:04:29;6.05;;;1.15;;
47589;SDS011;33316;52.298;9.056;2023-12-20T04:06:57;2.30;;;0.65;;
47589;SDS011;33316;52.298;9.056;2023-12-20T04:09:24;3.00;;;1.00;;
47589;SDS011;33316;52.298;9.056;2023-12-20T04:11:51;3.20;;;1.08;;
47589;SDS011;33316;52.298;9.056;2023-12-20T04:14:18;3.08;;;1.00;;
47589;SDS011;33316;52.298;9.056;2023-12-20T04:16:45;2.40;;;0.90;;
47589;SDS011;33316;52.298;9.056;2023-12-20T04:19:12;3.40;;;0.82;;
47589;SDS011;33316;52.298;9.056;2023-12-20T04:21:39;4.57;;;1.10;;
47589;SDS011;33316;52.298;9.056;2023-12-20T04:24:07;3.75;;;1.15;;
47589;SDS011;33316;52.298;9.056;2023-12-20T04:26:34;3.90;;;1.10;;
47589;SDS011;33316;52.298;9.056;2023-12-20T04:29:01;4.90;;;1.30;;
47589;SDS011;33316;52.298;9.056;2023-12-20T04:31:28;2.35;;;0.90;;
47589;SDS011;33316;52.298;9.056;2023-12-20T04:33:55;2.92;;;1.00;;
47589;SDS011;33316;52.298;9.056;2023-12-20T04:36:22;6.35;;;1.27;;
47589;SDS011;33316;52.298;9.056;2023-12-20T04:38:50;5.00;;;1.33;;
47589;SDS011;33316;52.298;9.056;2023-12-20T04:41:19;4.15;;;1.05;;
47589;SDS011;33316;52.298;9.056;2023-12-20T04:43:45;6.50;;;1.55;;
47589;SDS011;33316;52.298;9.056;2023-12-20T04:46:13;5.05;;;1.80;;
47589;SDS011;33316;52.298;9.056;2023-12-20T04:48:39;3.10;;;1.25;;
47589;SDS011;33316;52.298;9.056;2023-12-20T04:51:07;7.13;;;1.52;;
47589;SDS011;33316;52.298;9.056;2023-12-20T04:53:33;5.20;;;1.50;;
47589;SDS011;33316;52.298;9.056;2023-12-20T04:56:00;6.35;;;1.67;;
47589;SDS011;33316;52.298;9.056;2023-12-20T04:58:28;4.47;;;1.27;;
47589;SDS011;33316;52.298;9.056;2023-12-20T05:00:55;5.95;;;1.40;;
47589;SDS011;33316;52.298;9.056;2023-12-20T05:03:22;4.65;;;1.70;;
47589;SDS011;33316;52.298;9.056;2023-12-20T05:05:49;6.43;;;1.70;;
47589;SDS011;33316;52.298;9.056;2023-12-20T05:08:16;2.92;;;1.23;;
47589;SDS011;33316;52.298;9.056;2023-12-20T05:10:43;7.40;;;1.63;;
47589;SDS011;33316;52.298;9.056;2023-12-20T05:13:10;6.75;;;2.00;;
47589;SDS011;33316;52.298;9.056;2023-12-20T05:15:40;4.30;;;1.48;;
47589;SDS011;33316;52.298;9.056;2023-12-20T05:18:07;4.43;;;1.38;;
47589;SDS011;33316;52.298;9.056;2023-12-20T05:20:35;6.63;;;1.73;;
47589;SDS011;33316;52.298;9.056;2023-12-20T05:23:03;4.63;;;1.50;;
47589;SDS011;33316;52.298;9.056;2023-12-20T05:25:30;10.25;;;1.50;;
47589;SDS011;33316;52.298;9.056;2023-12-20T05:27:57;4.30;;;1.50;;
47589;SDS011;33316;52.298;9.056;2023-12-20T05:30:24;7.03;;;1.85;;
47589;SDS011;33316;52.298;9.056;2023-12-20T05:32:53;4.70;;;1.40;;
47589;SDS011;33316;52.298;9.056;2023-12-20T05:35:20;6.60;;;2.15;;
47589;SDS011;33316;52.298;9.056;2023-12-20T05:37:47;5.47;;;1.50;;
47589;SDS011;33316;52.298;9.056;2023-12-20T05:40:14;4.22;;;1.55;;
47589;SDS011;33316;52.298;9.056;2023-12-20T05:42:41;7.47;;;1.42;;
47589;SDS011;33316;52.298;9.056;2023-12-20T05:45:08;5.55;;;1.90;;
47589;SDS011;33316;52.298;9.056;2023-12-20T05:47:35;9.25;;;2.58;;
47589;SDS011;33316;52.298;9.056;2023-12-20T05:50:05;6.65;;;1.67;;
47589;SDS011;33316;52.298;9.056;2023-12-20T05:52:32;5.15;;;1.80;;
47589;SDS011;33316;52.298;9.056;2023-12-20T05:54:59;9.15;;;2.20;;
47589;SDS011;33316;52.298;9.056;2023-12-20T05:57:27;5.95;;;1.77;;
47589;SDS011;33316;52.298;9.056;2023-12-20T05:59:54;9.07;;;1.90;;
47589;SDS011;33316;52.298;9.056;2023-12-20T06:02:20;5.13;;;1.10;;
47589;SDS011;33316;52.298;9.056;2023-12-20T06:04:48;7.03;;;1.75;;
47589;SDS011;33316;52.298;9.056;2023-12-20T06:07:16;7.45;;;2.15;;
47589;SDS011;33316;52.298;9.056;2023-12-20T06:09:43;6.13;;;2.03;;
47589;SDS011;33316;52.298;9.056;2023-12-20T06:12:10;7.18;;;2.20;;
47589;SDS011;33316;52.298;9.056;2023-12-20T06:14:37;7.38;;;1.73;;
47589;SDS011;33316;52.298;9.056;2023-12-20T06:17:04;7.45;;;2.25;;
47589;SDS011;33316;52.298;9.056;2023-12-20T06:19:31;5.43;;;1.35;;
47589;SDS011;33316;52.298;9.056;2023-12-20T06:22:00;8.52;;;1.73;;
47589;SDS011;33316;52.298;9.056;2023-12-20T06:24:29;6.07;;;1.60;;
47589;SDS011;33316;52.298;9.056;2023-12-20T06:26:58;5.85;;;1.85;;
47589;SDS011;33316;52.298;9.056;2023-12-20T06:29:26;7.88;;;1.90;;
47589;SDS011;33316;52.298;9.056;2023-12-20T06:31:53;9.82;;;1.55;;
47589;SDS011;33316;52.298;9.056;2023-12-20T06:34:20;5.90;;;1.60;;
47589;SDS011;33316;52.298;9.056;2023-12-20T06:36:47;7.75;;;1.63;;
47589;SDS011;33316;52.298;9.056;2023-12-20T06:39:14;6.00;;;1.55;;
47589;SDS011;33316;52.298;9.056;2023-12-20T06:41:42;5.97;;;1.48;;
47589;SDS011;33316;52.298;9.056;2023-12-20T06:44:09;7.00;;;1.40;;
47589;SDS011;33316;52.298;9.056;2023-12-20T06:46:36;5.38;;;1.55;;
47589;SDS011;33316;52.298;9.056;2023-12-20T06:49:03;5.88;;;1.60;;
47589;SDS011;33316;52.298;9.056;2023-12-20T06:51:30;5.00;;;1.42;;
47589;SDS011;33316;52.298;9.056;2023-12-20T06:53:57;4.90;;;1.60;;
47589;SDS011;33316;52.298;9.056;2023-12-20T06:56:25;6.45;;;1.42;;
47589;SDS011;33316;52.298;9.056;2023-12-20T06:58:53;7.78;;;1.55;;
47589;SDS011;33316;52.298;9.056;2023-12-20T07:01:20;8.25;;;1.42;;
47589;SDS011;33316;52.298;9.056;2023-12-20T07:03:47;7.45;;;1.45;;
47589;SDS011;33316;52.298;9.056;2023-12-20T07:06:15;8.50;;;1.98;;
47589;SDS011;33316;52.298;9.056;2023-12-20T07:08:42;9.15;;;2.42;;
47589;SDS011;33316;52.298;9.056;2023-12-20T07:11:09;8.40;;;1.92;;
47589;SDS011;33316;52.298;9.056;2023-12-20T07:13:36;8.38;;;2.15;;
47589;SDS011;33316;52.298;9.056;2023-12-20T07:16:06;7.22;;;2.70;;
47589;SDS011;33316;52.298;9.056;2023-12-20T07:18:33;4.88;;;1.58;;
47589;SDS011;33316;52.298;9.056;2023-12-20T07:21:02;5.85;;;1.67;;
47589;SDS011;33316;52.298;9.056;2023-12-20T07:23:29;6.50;;;1.52;;
47589;SDS011;33316;52.298;9.056;2023-12-20T07:25:56;6.88;;;1.48;;
47589;SDS011;33316;52.298;9.056;2023-12-20T07:28:23;9.98;;;2.05;;
47589;SDS011;33316;52.298;9.056;2023-12-20T07:30:50;6.22;;;1.92;;
47589;SDS011;33316;52.298;9.056;2023-12-20T07:33:19;8.60;;;1.98;;
47589;SDS011;33316;52.298;9.056;2023-12-20T07:35:46;7.43;;;1.80;;
47589;SDS011;33316;52.298;9.056;2023-12-20T07:38:13;8.25;;;2.15;;
47589;SDS011;33316;52.298;9.056;2023-12-20T07:40:40;5.43;;;1.80;;
47589;SDS011;33316;52.298;9.056;2023-12-20T07:43:10;8.77;;;2.03;;
47589;SDS011;33316;52.298;9.056;2023-12-20T07:45:37;4.43;;;1.60;;
47589;SDS011;33316;52.298;9.056;2023-12-20T07:48:05;7.20;;;1.80;;
47589;SDS011;33316;52.298;9.056;2023-12-20T07:50:35;7.85;;;2.20;;
47589;SDS011;33316;52.298;9.056;2023-12-20T07:53:02;6.05;;;2.20;;
47589;SDS011;33316;52.298;9.056;2023-12-20T07:55:29;8.02;;;2.05;;
47589;SDS011;33316;52.298;9.056;2023-12-20T07:57:57;5.85;;;1.65;;
47589;SDS011;33316;52.298;9.056;2023-12-20T08:00:24;5.95;;;1.83;;
47589;SDS011;33316;52.298;9.056;2023-12-20T08:02:51;7.00;;;2.10;;
47589;SDS011;33316;52.298;9.056;2023-12-20T08:05:20;5.60;;;1.77;;
47589;SDS011;33316;52.298;9.056;2023-12-20T08:07:48;4.78;;;1.35;;
47589;SDS011;33316;52.298;9.056;2023-12-20T08:10:15;8.63;;;2.35;;
47589;SDS011;33316;52.298;9.056;2023-12-20T08:12:44;5.13;;;1.63;;
47589;SDS011;33316;52.298;9.056;2023-12-20T08:15:11;6.18;;;2.08;;
47589;SDS011;33316;52.298;9.056;2023-12-20T08:17:39;6.07;;;1.83;;
47589;SDS011;33316;52.298;9.056;2023-12-20T08:20:07;6.40;;;1.83;;
47589;SDS011;33316;52.298;9.056;2023-12-20T08:22:34;6.93;;;1.83;;
47589;SDS011;33316;52.298;9.056;2023-12-20T08:25:04;7.18;;;2.08;;
47589;SDS011;33316;52.298;9.056;2023-12-20T08:27:31;7.25;;;1.95;;
47589;SDS011;33316;52.298;9.056;2023-12-20T08:29:58;9.80;;;1.70;;
47589;SDS011;33316;52.298;9.056;2023-12-20T08:32:26;8.43;;;2.17;;
47589;SDS011;33316;52.298;9.056;2023-12-20T08:34:53;4.18;;;1.77;;
47589;SDS011;33316;52.298;9.056;2023-12-20T08:37:20;4.25;;;1.42;;
47589;SDS011;33316;52.298;9.056;2023-12-20T08:39:47;7.60;;;1.60;;
47589;SDS011;33316;52.298;9.056;2023-12-20T08:42:15;5.95;;;1.80;;
47589;SDS011;33316;52.298;9.056;2023-12-20T08:44:42;8.50;;;1.98;;
47589;SDS011;33316;52.298;9.056;2023-12-20T08:47:09;6.97;;;1.90;;
47589;SDS011;33316;52.298;9.056;2023-12-20T08:49:38;7.25;;;2.20;;
47589;SDS011;33316;52.298;9.056;2023-12-20T08:52:05;6.22;;;1.75;;
47589;SDS011;33316;52.298;9.056;2023-12-20T08:54:32;7.03;;;1.75;;
47589;SDS011;33316;52.298;9.056;2023-12-20T08:56:59;9.30;;;2.30;;
47589;SDS011;33316;52.298;9.056;2023-12-20T08:59:27;6.60;;;1.58;;
47589;SDS011;33316;52.298;9.056;2023-12-20T09:01:54;6.95;;;1.65;;
47589;SDS011;33316;52.298;9.056;2023-12-20T09:04:22;6.05;;;1.92;;
47589;SDS011;33316;52.298;9.056;2023-12-20T09:06:49;4.43;;;1.92;;
47589;SDS011;33316;52.298;9.056;2023-12-20T09:09:16;6.13;;;1.98;;
47589;SDS011;33316;52.298;9.056;2023-12-20T09:11:43;7.65;;;1.70;;
47589;SDS011;33316;52.298;9.056;2023-12-20T09:14:11;13.80;;;2.90;;
47589;SDS011;33316;52.298;9.056;2023-12-20T09:16:39;11.00;;;2.17;;
47589;SDS011;33316;52.298;9.056;2023-12-20T09:19:06;6.53;;;1.75;;
47589;SDS011;33316;52.298;9.056;2023-12-20T09:21:34;8.52;;;2.00;;
47589;SDS011;33316;52.298;9.056;2023-12-20T09:24:01;7.97;;;1.67;;
47589;SDS011;33316;52.298;9.056;2023-12-20T09:26:29;6.05;;;1.90;;
47589;SDS011;33316;52.298;9.056;2023-12-20T09:28:56;6.60;;;1.65;;
47589;SDS011;33316;52.298;9.056;2023-12-20T09:31:23;9.15;;;1.85;;
47589;SDS011;33316;52.298;9.056;2023-12-20T09:33:51;7.95;;;1.83;;
47589;SDS011;33316;52.298;9.056;2023-12-20T09:36:18;4.22;;;1.23;;
47589;SDS011;33316;52.298;9.056;2023-12-20T09:38:45;9.43;;;2.45;;
47589;SDS011;33316;52.298;9.056;2023-12-20T09:41:12;5.30;;;1.67;;
47589;SDS011;33316;52.298;9.056;2023-12-20T09:43:39;6.68;;;1.52;;
47589;SDS011;33316;52.298;9.056;2023-12-20T09:46:08;3.38;;;1.20;;
47589;SDS011;33316;52.298;9.056;2023-12-20T09:48:38;5.03;;;1.70;;
47589;SDS011;33316;52.298;9.056;2023-12-20T09:51:09;6.40;;;2.03;;
47589;SDS011;33316;52.298;9.056;2023-12-20T09:53:36;5.28;;;1.95;;
47589;SDS011;33316;52.298;9.056;2023-12-20T09:56:05;9.13;;;2.20;;
47589;SDS011;33316;52.298;9.056;2023-12-20T09:58:32;6.50;;;2.10;;
47589;SDS011;33316;52.298;9.056;2023-12-20T10:01:07;6.97;;;1.85;;
47589;SDS011;33316;52.298;9.056;2023-12-20T10:03:34;5.82;;;1.80;;
47589;SDS011;33316;52.298;9.056;2023-12-20T10:06:03;8.73;;;1.80;;
47589;SDS011;33316;52.298;9.056;2023-12-20T10:08:32;6.25;;;2.20;;
47589;SDS011;33316;52.298;9.056;2023-12-20T10:10:58;5.65;;;1.77;;
47589;SDS011;33316;52.298;9.056;2023-12-20T10:13:28;6.70;;;1.85;;
47589;SDS011;33316;52.298;9.056;2023-12-20T10:15:55;10.30;;;2.88;;
47589;SDS011;33316;52.298;9.056;2023-12-20T10:18:22;7.00;;;1.95;;
47589;SDS011;33316;52.298;9.056;2023-12-20T10:20:51;9.05;;;2.13;;
47589;SDS011;33316;52.298;9.056;2023-12-20T10:23:19;8.75;;;2.17;;
47589;SDS011;33316;52.298;9.056;2023-12-20T10:25:57;6.28;;;1.85;;
47589;SDS011;33316;52.298;9.056;2023-12-20T10:28:24;8.68;;;2.17;;
47589;SDS011;33316;52.298;9.056;2023-12-20T10:30:53;5.18;;;1.67;;
47589;SDS011;33316;52.298;9.056;2023-12-20T10:33:25;6.95;;;1.92;;
47589;SDS011;33316;52.298;9.056;2023-12-20T10:35:53;6.00;;;1.70;;
47589;SDS011;33316;52.298;9.056;2023-12-20T10:38:21;8.13;;;1.73;;
47589;SDS011;33316;52.298;9.056;2023-12-20T10:40:49;7.25;;;1.75;;
47589;SDS011;33316;52.298;9.056;2023-12-20T10:43:22;8.73;;;1.98;;
47589;SDS011;33316;52.298;9.056;2023-12-20T10:45:51;9.52;;;2.13;;
47589;SDS011;33316;52.298;9.056;2023-12-20T10:48:18;8.73;;;2.35;;
47589;SDS011;33316;52.298;9.056;2023-12-20T10:50:52;6.93;;;2.35;;
47589;SDS011;33316;52.298;9.056;2023-12-20T10:53:21;5.75;;;1.50;;
47589;SDS011;33316;52.298;9.056;2023-12-20T10:55:51;3.67;;;1.48;;
47589;SDS011;33316;52.298;9.056;2023-12-20T10:58:23;5.97;;;1.92;;
47589;SDS011;33316;52.298;9.056;2023-12-20T11:00:52;8.50;;;2.45;;
47589;SDS011;33316;52.298;9.056;2023-12-20T11:03:26;8.35;;;1.75;;
47589;SDS011;33316;52.298;9.056;2023-12-20T11:05:59;6.47;;;1.80;;
47589;SDS011;33316;52.298;9.056;2023-12-20T11:08:32;5.18;;;1.63;;
47589;SDS011;33316;52.298;9.056;2023-12-20T11:11:03;5.72;;;2.00;;
47589;SDS011;33316;52.298;9.056;2023-12-20T11:16:02;4.57;;;1.60;;
47589;SDS011;33316;52.298;9.056;2023-12-20T11:18:30;4.88;;;1.58;;
47589;SDS011;33316;52.298;9.056;2023-12-20T11:21:01;5.75;;;2.08;;
47589;SDS011;33316;52.298;9.056;2023-12-20T11:23:29;7.43;;;1.70;;
47589;SDS011;33316;52.298;9.056;2023-12-20T11:25:58;7.68;;;1.70;;
47589;SDS011;33316;52.298;9.056;2023-12-20T11:28:26;5.32;;;1.75;;
47589;SDS011;33316;52.298;9.056;2023-12-20T11:31:01;8.15;;;1.80;;
47589;SDS011;33316;52.298;9.056;2023-12-20T11:33:29;7.13;;;2.30;;
47589;SDS011;33316;52.298;9.056;2023-12-20T11:36:01;8.00;;;2.05;;
47589;SDS011;33316;52.298;9.056;2023-12-20T11:38:35;6.85;;;2.05;;
47589;SDS011;33316;52.298;9.056;2023-12-20T11:41:05;7.43;;;1.50;;
47589;SDS011;33316;52.298;9.056;2023-12-20T11:43:34;5.90;;;1.58;;
47589;SDS011;33316;52.298;9.056;2023-12-20T11:46:06;5.40;;;1.40;;
47589;SDS011;33316;52.298;9.056;2023-12-20T11:48:34;6.45;;;1.67;;
47589;SDS011;33316;52.298;9.056;2023-12-20T11:51:09;4.15;;;1.45;;
47589;SDS011;33316;52.298;9.056;2023-12-20T11:53:36;5.10;;;1.60;;
47589;SDS011;33316;52.298;9.056;2023-12-20T11:56:04;4.45;;;0.82;;
47589;SDS011;33316;52.298;9.056;2023-12-20T11:58:32;2.05;;;0.45;;
47589;SDS011;33316;52.298;9.056;2023-12-20T12:00:59;3.35;;;0.65;;
47589;SDS011;33316;52.298;9.056;2023-12-20T12:03:30;2.35;;;0.60;;
47589;SDS011;33316;52.298;9.056;2023-12-20T12:05:58;0.63;;;0.50;;
47589;SDS011;33316;52.298;9.056;2023-12-20T12:08:28;3.42;;;0.70;;
47589;SDS011;33316;52.298;9.056;2023-12-20T12:10:57;2.92;;;0.70;;
47589;SDS011;33316;52.298;9.056;2023-12-20T12:13:24;2.30;;;0.60;;
47589;SDS011;33316;52.298;9.056;2023-12-20T12:15:53;1.05;;;0.45;;
47589;SDS011;33316;52.298;9.056;2023-12-20T12:18:20;3.05;;;0.50;;
47589;SDS011;33316;52.298;9.056;2023-12-20T12:20:49;2.00;;;0.60;;
47589;SDS011;33316;52.298;9.056;2023-12-20T12:23:22;1.02;;;0.30;;
47589;SDS011;33316;52.298;9.056;2023-12-20T12:25:49;2.20;;;0.50;;
47589;SDS011;33316;52.298;9.056;2023-12-20T12:28:17;1.73;;;0.60;;
47589;SDS011;33316;52.298;9.056;2023-12-20T12:30:55;1.25;;;0.60;;
47589;SDS011;33316;52.298;9.056;2023-12-20T12:33:24;1.83;;;0.60;;
47589;SDS011;33316;52.298;9.056;2023-12-20T12:35:52;1.08;;;0.30;;
47589;SDS011;33316;52.298;9.056;2023-12-20T12:38:20;1.52;;;0.60;;
47589;SDS011;33316;52.298;9.056;2023-12-20T12:40:47;1.30;;;0.50;;
47589;SDS011;33316;52.298;9.056;2023-12-20T12:43:18;0.73;;;0.60;;
47589;SDS011;33316;52.298;9.056;2023-12-20T12:45:45;0.98;;;0.47;;
47589;SDS011;33316;52.298;9.056;2023-12-20T12:48:13;1.45;;;0.55;;
47589;SDS011;33316;52.298;9.056;2023-12-20T12:50:40;2.63;;;0.65;;
47589;SDS011;33316;52.298;9.056;2023-12-20T12:53:11;1.38;;;0.60;;
47589;SDS011;33316;52.298;9.056;2023-12-20T12:55:40;1.70;;;0.47;;
47589;SDS011;33316;52.298;9.056;2023-12-20T12:58:08;3.40;;;0.50;;
47589;SDS011;33316;52.298;9.056;2023-12-20T13:00:35;2.25;;;0.55;;
47589;SDS011;33316;52.298;9.056;2023-12-20T13:03:02;1.88;;;0.60;;
47589;SDS011;33316;52.298;9.056;2023-12-20T13:05:30;1.60;;;0.60;;
47589;SDS011;33316;52.298;9.056;2023-12-20T13:07:57;2.92;;;0.75;;
47589;SDS011;33316;52.298;9.056;2023-12-20T13:10:25;3.10;;;0.70;;
47589;SDS011;33316;52.298;9.056;2023-12-20T13:12:52;4.50;;;1.17;;
47589;SDS011;33316;52.298;9.056;2023-12-20T13:15:19;4.45;;;0.90;;
47589;SDS011;33316;52.298;9.056;2023-12-20T13:17:46;2.38;;;0.90;;
47589;SDS011;33316;52.298;9.056;2023-12-20T13:20:13;4.47;;;1.02;;
47589;SDS011;33316;52.298;9.056;2023-12-20T13:22:40;3.95;;;0.93;;
47589;SDS011;33316;52.298;9.056;2023-12-20T13:25:08;2.47;;;0.75;;
47589;SDS011;33316;52.298;9.056;2023-12-20T13:27:37;3.80;;;0.80;;
47589;SDS011;33316;52.298;9.056;2023-12-20T13:30:07;2.25;;;0.75;;
47589;SDS011;33316;52.298;9.056;2023-12-20T13:32:37;2.40;;;0.65;;
47589;SDS011;33316;52.298;9.056;2023-12-20T13:35:05;2.95;;;0.80;;
47589;SDS011;33316;52.298;9.056;2023-12-20T13:37:32;2.35;;;0.80;;
47589;SDS011;33316;52.298;9.056;2023-12-20T13:39:59;4.05;;;0.70;;
47589;SDS011;33316;52.298;9.056;2023-12-20T13:42:28;2.80;;;0.57;;
47589;SDS011;33316;52.298;9.056;2023-12-20T13:44:56;1.83;;;0.68;;
47589;SDS011;33316;52.298;9.056;2023-12-20T13:49:54;4.07;;;0.80;;
47589;SDS011;33316;52.298;9.056;2023-12-20T13:52:21;1.80;;;0.50;;
47589;SDS011;33316;52.298;9.056;2023-12-20T13:54:48;2.42;;;0.65;;
47589;SDS011;33316;52.298;9.056;2023-12-20T13:57:15;5.13;;;1.13;;
47589;SDS011;33316;52.298;9.056;2023-12-20T13:59:42;3.72;;;0.80;;
47589;SDS011;33316;52.298;9.056;2023-12-20T14:02:10;2.92;;;0.90;;
47589;SDS011;33316;52.298;9.056;2023-12-20T14:04:37;1.85;;;0.95;;
47589;SDS011;33316;52.298;9.056;2023-12-20T14:07:06;2.83;;;0.90;;
47589;SDS011;33316;52.298;9.056;2023-12-20T14:09:33;1.67;;;0.60;;
47589;SDS011;33316;52.298;9.056;2023-12-20T14:12:00;2.63;;;0.70;;
47589;SDS011;33316;52.298;9.056;2023-12-20T14:14:27;2.40;;;0.90;;
47589;SDS011;33316;52.298;9.056;2023-12-20T14:16:55;1.80;;;0.70;;
47589;SDS011;33316;52.298;9.056;2023-12-20T14:19:23;4.22;;;0.77;;
47589;SDS011;33316;52.298;9.056;2023-12-20T14:21:50;2.65;;;0.70;;
47589;SDS011;33316;52.298;9.056;2023-12-20T14:24:17;3.60;;;0.80;;
47589;SDS011;33316;52.298;9.056;2023-12-20T14:26:47;2.60;;;0.60;;
47589;SDS011;33316;52.298;9.056;2023-12-20T14:29:14;1.50;;;0.57;;
47589;SDS011;33316;52.298;9.056;2023-12-20T14:31:41;2.72;;;0.68;;
47589;SDS011;33316;52.298;9.056;2023-12-20T14:34:08;1.48;;;0.50;;
47589;SDS011;33316;52.298;9.056;2023-12-20T14:36:37;2.35;;;0.70;;
47589;SDS011;33316;52.298;9.056;2023-12-20T14:39:05;2.28;;;0.45;;
47589;SDS011;33316;52.298;9.056;2023-12-20T14:41:33;1.30;;;0.60;;
47589;SDS011;33316;52.298;9.056;2023-12-20T14:44:01;3.70;;;0.80;;
47589;SDS011;33316;52.298;9.056;2023-12-20T14:46:30;3.97;;;0.60;;
47589;SDS011;33316;52.298;9.056;2023-12-20T14:48:59;3.25;;;0.90;;
47589;SDS011;33316;52.298;9.056;2023-12-20T14:51:27;3.05;;;0.95;;
47589;SDS011;33316;52.298;9.056;2023-12-20T14:53:57;3.10;;;0.70;;
47589;SDS011;33316;52.298;9.056;2023-12-20T14:56:25;2.97;;;0.88;;